Time;durP1;ratioP1;P1;durP2;ratioP2;P2;SDS_P1;SDS_P2;PMS_P1;PMS_P2;Temp;Humidity;BMP_temperature;BMP_pressure;BME280_temperature;BME280_humidity;BME280_pressure;Samples;Min_cycle;Max_cycle;Signal;HPM_P1;HPM_P2
2023/07/31 00:04:22;;;;;;;1.65;1.08;;;;;;;17.50;56.64;99651.34;10470996;28;20051;-59
2023/07/31 00:09:24;;;;;;;1.42;0.80;;;;;;;17.50;56.47;99649.53;10489809;28;20048;-59
2023/07/31 00:14:26;;;;;;;4.28;1.35;;;;;;;17.62;56.18;99647.56;10490972;28;20048;-59
2023/07/31 00:19:28;;;;;;;3.20;1.40;;;;;;;17.55;56.20;99642.00;10490311;28;20051;-59
2023/07/31 00:24:30;;;;;;;3.60;1.30;;;;;;;17.60;55.75;99645.06;10492651;28;20127;-59
2023/07/31 00:29:32;;;;;;;4.00;0.98;;;;;;;17.75;55.80;99625.09;10499271;28;20048;-59
2023/07/31 00:34:34;;;;;;;1.88;1.15;;;;;;;17.65;56.08;99619.00;10493410;28;20048;-59
2023/07/31 00:39:37;;;;;;;1.75;0.95;;;;;;;17.62;56.29;99611.38;10490224;28;20040;-59
2023/07/31 00:44:39;;;;;;;5.07;1.20;;;;;;;17.62;55.95;99603.44;10471463;28;20048;-59
2023/07/31 00:49:41;;;;;;;1.77;1.13;;;;;;;17.55;56.37;99612.06;10471109;28;20071;-59
2023/07/31 00:54:44;;;;;;;3.17;1.15;;;;;;;17.50;56.22;99606.41;10490209;28;20089;-59
2023/07/31 00:59:46;;;;;;;5.40;1.13;;;;;;;17.48;56.17;99603.91;10496847;28;20054;-59
2023/07/31 01:04:49;;;;;;;1.83;1.02;;;;;;;17.60;55.76;99600.13;10506837;28;20048;-59
2023/07/31 01:09:55;;;;;;;1.60;1.08;;;;;;;17.70;55.66;99592.13;10485512;28;20048;-59
2023/07/31 01:15:11;;;;;;;2.92;1.10;;;;;;;17.75;55.47;99600.47;10501090;28;20518;-59
2023/07/31 01:20:25;;;;;;;2.75;0.93;;;;;;;17.80;56.01;99599.06;10497013;28;20511;-59
2023/07/31 01:25:45;;;;;;;4.78;1.60;;;;;;;17.78;55.53;99590.44;10498164;28;20133;-59
2023/07/31 01:30:48;;;;;;;2.47;1.15;;;;;;;17.82;55.13;99586.53;10497821;28;20067;-59
2023/07/31 01:35:51;;;;;;;1.70;0.90;;;;;;;17.84;55.13;99584.56;10485597;28;20046;-59
2023/07/31 01:40:53;;;;;;;4.22;1.63;;;;;;;17.87;55.10;99583.44;10502014;28;20123;-59
2023/07/31 01:45:55;;;;;;;1.42;0.90;;;;;;;17.81;55.34;99579.53;10478570;28;20040;-59
2023/07/31 01:51:00;;;;;;;1.85;1.30;;;;;;;17.87;55.20;99577.31;10479445;28;20048;-59
2023/07/31 01:56:02;;;;;;;1.98;0.90;;;;;;;17.85;55.07;99580.13;10502000;28;20036;-59
2023/07/31 02:01:05;;;;;;;3.28;1.20;;;;;;;17.91;54.82;99582.16;10500681;28;20044;-59
2023/07/31 02:06:08;;;;;;;1.90;1.00;;;;;;;17.96;54.83;99593.13;10495212;28;20444;-59
2023/07/31 02:11:10;;;;;;;4.57;1.17;;;;;;;17.99;54.45;99560.25;10498554;28;20128;-59
2023/07/31 02:16:12;;;;;;;2.20;0.88;;;;;;;17.93;54.66;99579.38;10515681;28;20071;-59
2023/07/31 02:21:15;;;;;;;2.30;1.23;;;;;;;17.92;54.47;99564.47;10502054;28;20047;-59
2023/07/31 02:26:17;;;;;;;3.75;0.93;;;;;;;17.92;54.68;99561.81;10483564;28;20040;-59
2023/07/31 02:31:19;;;;;;;2.80;1.15;;;;;;;17.82;54.90;99552.13;10486524;28;20062;-59
2023/07/31 02:36:24;;;;;;;2.00;1.00;;;;;;;17.76;54.84;99555.38;10485359;28;20043;-59
2023/07/31 02:41:26;;;;;;;2.40;1.20;;;;;;;17.73;55.03;99558.28;10482918;28;21885;-59
2023/07/31 02:46:28;;;;;;;5.93;1.83;;;;;;;17.72;55.12;99553.16;10494818;28;20129;-59
2023/07/31 02:51:30;;;;;;;1.58;1.00;;;;;;;17.73;55.26;99552.16;10452469;28;20137;-59
2023/07/31 02:56:32;;;;;;;3.95;1.10;;;;;;;17.77;55.00;99556.22;10437659;28;20490;-59
2023/07/31 03:01:34;;;;;;;1.33;0.93;;;;;;;17.66;55.43;99557.22;10456839;28;20044;-59
2023/07/31 03:06:36;;;;;;;3.78;1.13;;;;;;;17.64;55.52;99553.88;10460044;28;20048;-59
2023/07/31 03:11:39;;;;;;;2.78;1.80;;;;;;;17.64;55.95;99559.19;10477685;28;20055;-59
2023/07/31 03:16:41;;;;;;;3.30;1.30;;;;;;;17.69;55.83;99556.91;10457488;28;20073;-59
2023/07/31 03:21:43;;;;;;;2.65;1.17;;;;;;;17.71;55.78;99551.47;10463747;28;20496;-59
2023/07/31 03:26:45;;;;;;;2.78;1.35;;;;;;;17.72;55.72;99555.78;10454543;28;20521;-59
2023/07/31 03:31:47;;;;;;;2.80;1.38;;;;;;;17.63;56.08;99559.28;10462985;28;20380;-59
2023/07/31 03:36:50;;;;;;;1.98;1.10;;;;;;;17.64;56.47;99560.97;10460326;28;20068;-59
2023/07/31 03:41:52;;;;;;;3.90;1.70;;;;;;;17.51;57.07;99545.44;10461193;28;20137;-59
2023/07/31 03:46:54;;;;;;;1.02;0.80;;;;;;;17.53;57.17;99542.63;10453846;28;20137;-59
2023/07/31 03:51:56;;;;;;;1.55;1.10;;;;;;;17.45;57.78;99538.09;10494977;28;20052;-59
2023/07/31 03:56:58;;;;;;;2.53;1.38;;;;;;;17.40;57.57;99542.97;10458214;28;20048;-59
2023/07/31 04:02:00;;;;;;;2.00;0.95;;;;;;;17.44;58.14;99540.88;10461468;28;20080;-59
2023/07/31 04:07:02;;;;;;;3.60;1.20;;;;;;;17.39;58.00;99532.53;10460654;28;20121;-59
2023/07/31 04:12:05;;;;;;;2.10;1.20;;;;;;;17.39;57.84;99533.38;10461711;28;20139;-59
2023/07/31 04:17:07;;;;;;;1.88;1.08;;;;;;;17.37;58.47;99519.47;10466208;28;20498;-59
2023/07/31 04:22:13;;;;;;;3.03;1.05;;;;;;;17.42;58.02;99513.75;10459065;28;20048;-59
2023/07/31 04:27:15;;;;;;;0.95;0.75;;;;;;;17.46;58.06;99504.56;10463249;28;20659;-59
2023/07/31 04:32:17;;;;;;;2.65;1.15;;;;;;;17.49;58.04;99513.03;10465968;28;21083;-59
2023/07/31 04:37:19;;;;;;;1.98;1.05;;;;;;;17.50;58.20;99513.84;10471260;28;20131;-59
2023/07/31 04:42:21;;;;;;;1.63;1.02;;;;;;;17.53;58.43;99517.03;10469691;28;20044;-59
2023/07/31 04:47:23;;;;;;;3.00;1.40;;;;;;;17.61;57.96;99519.78;10470842;28;20131;-59
2023/07/31 04:52:25;;;;;;;2.75;1.02;;;;;;;17.58;58.11;99524.53;10510385;28;20083;-59
2023/07/31 04:57:27;;;;;;;2.58;1.30;;;;;;;17.65;58.25;99515.88;10513636;28;20068;-59
2023/07/31 05:02:29;;;;;;;1.55;0.93;;;;;;;17.82;57.68;99523.03;10512788;28;20131;-59
2023/07/31 05:07:31;;;;;;;3.65;1.40;;;;;;;17.95;57.57;99520.03;10508303;28;20149;-59
2023/07/31 05:12:33;;;;;;;1.95;1.00;;;;;;;18.00;57.42;99503.69;10514393;28;20534;-59
2023/07/31 05:17:35;;;;;;;3.67;1.10;;;;;;;18.02;57.56;99502.56;10506748;28;20046;-59
2023/07/31 05:22:37;;;;;;;2.70;1.08;;;;;;;18.10;57.44;99507.97;10510632;28;20044;-59
2023/07/31 05:27:39;;;;;;;1.52;1.05;;;;;;;18.13;57.26;99506.84;10490566;28;20048;-59
2023/07/31 05:32:41;;;;;;;1.23;0.75;;;;;;;18.16;57.60;99514.44;10507250;28;20155;-59
2023/07/31 05:37:43;;;;;;;1.90;0.90;;;;;;;18.17;57.29;99511.69;10498400;28;20254;-59
2023/07/31 05:42:45;;;;;;;2.88;1.08;;;;;;;18.14;57.64;99514.63;10495360;28;20313;-59
2023/07/31 05:47:47;;;;;;;3.78;1.60;;;;;;;18.15;57.57;99516.28;10510578;28;20069;-58
2023/07/31 05:52:49;;;;;;;1.65;1.10;;;;;;;18.18;57.43;99504.59;10510966;28;21162;-59
2023/07/31 05:57:51;;;;;;;1.83;1.00;;;;;;;18.44;56.91;99494.94;10507089;28;20662;-59
2023/07/31 06:02:53;;;;;;;1.90;1.27;;;;;;;18.45;56.73;99492.13;10508460;28;20117;-59
2023/07/31 06:07:56;;;;;;;3.50;1.20;;;;;;;18.41;56.80;99495.22;10510412;28;20047;-59
2023/07/31 06:12:58;;;;;;;3.80;1.08;;;;;;;18.47;56.82;99486.66;10510738;28;20065;-59
2023/07/31 06:18:01;;;;;;;2.17;1.05;;;;;;;18.63;56.67;99485.00;10509293;28;20282;-59
2023/07/31 06:23:04;;;;;;;3.00;1.25;;;;;;;18.76;56.05;99494.34;10511608;28;20159;-59
2023/07/31 06:28:06;;;;;;;1.85;1.10;;;;;;;18.99;55.61;99488.38;10504130;28;20044;-59
2023/07/31 06:33:09;;;;;;;2.58;1.30;;;;;;;19.62;54.42;99478.34;10503464;28;20135;-59
2023/07/31 06:38:11;;;;;;;2.17;1.17;;;;;;;19.81;54.16;99472.78;10500354;28;20396;-59
2023/07/31 06:43:13;;;;;;;2.13;1.02;;;;;;;20.03;53.45;99458.91;10503387;28;20051;-59
2023/07/31 06:48:15;;;;;;;5.18;1.17;;;;;;;20.23;53.10;99451.50;10503491;28;20080;-59
2023/07/31 06:53:17;;;;;;;2.05;1.30;;;;;;;20.23;52.62;99446.97;10504703;28;20044;-59
2023/07/31 06:58:19;;;;;;;2.47;1.20;;;;;;;20.45;52.42;99448.19;10499820;28;20044;-59
2023/07/31 07:03:21;;;;;;;2.92;1.23;;;;;;;20.35;52.40;99444.03;10485808;28;20083;-59
2023/07/31 07:08:24;;;;;;;2.13;1.33;;;;;;;20.18;53.08;99424.59;10484236;28;20484;-59
2023/07/31 07:13:28;;;;;;;7.63;1.80;;;;;;;20.01;53.68;99444.97;10506634;28;20483;-59
2023/07/31 07:18:30;;;;;;;2.28;1.17;;;;;;;20.16;53.78;99435.38;10503794;28;20044;-59
2023/07/31 07:23:32;;;;;;;2.55;1.30;;;;;;;20.15;53.83;99436.34;10500387;28;20048;-59
2023/07/31 07:28:34;;;;;;;2.40;1.38;;;;;;;20.10;53.54;99438.69;10480834;28;20513;-59
2023/07/31 07:33:36;;;;;;;5.70;1.20;;;;;;;20.08;53.57;99430.06;10502334;28;20460;-59
2023/07/31 07:38:39;;;;;;;3.25;1.30;;;;;;;20.47;53.37;99440.03;10516599;28;20240;-59
2023/07/31 07:43:41;;;;;;;2.03;0.95;;;;;;;20.64;52.89;99434.56;10485536;28;20056;-59
2023/07/31 07:48:43;;;;;;;2.15;1.13;;;;;;;20.88;52.39;99429.25;10501465;28;20056;-59
2023/07/31 07:53:45;;;;;;;2.45;1.10;;;;;;;21.86;51.17;99420.69;10503486;28;20135;-60
2023/07/31 07:58:49;;;;;;;3.28;1.60;;;;;;;22.84;48.99;99410.16;10498564;28;20415;-59
2023/07/31 08:03:51;;;;;;;5.80;1.65;;;;;;;23.18;47.81;99405.13;10484470;28;20585;-59
2023/07/31 08:08:54;;;;;;;2.88;1.20;;;;;;;22.64;47.97;99410.66;10507116;28;20051;-60
2023/07/31 08:13:56;;;;;;;2.83;1.30;;;;;;;22.22;48.83;99423.66;10508181;28;20048;-59
2023/07/31 08:18:58;;;;;;;2.85;1.00;;;;;;;22.93;47.59;99414.38;10504732;28;20101;-60
2023/07/31 08:24:00;;;;;;;2.08;1.17;;;;;;;23.25;46.86;99400.69;10502221;28;20039;-60
2023/07/31 08:29:02;;;;;;;3.20;1.23;;;;;;;22.58;46.83;99395.38;10488136;28;20048;-61
2023/07/31 08:34:04;;;;;;;3.17;1.08;;;;;;;21.78;48.31;99411.97;10498779;28;20055;-61
2023/07/31 08:39:06;;;;;;;2.28;1.30;;;;;;;21.39;49.66;99422.63;10489633;28;20500;-60
2023/07/31 08:44:12;;;;;;;2.30;1.00;;;;;;;20.96;50.67;99415.94;10508948;28;20044;-61
2023/07/31 08:49:17;;;;;;;2.90;1.17;;;;;;;20.65;52.26;99414.97;10499015;28;20917;-60
2023/07/31 08:54:20;;;;;;;4.35;1.23;;;;;;;20.52;52.90;99419.94;10504081;28;20722;-60
2023/07/31 08:59:23;;;;;;;2.92;1.50;;;;;;;20.14;54.36;99424.09;10498777;28;20415;-60
2023/07/31 09:04:26;;;;;;;1.85;1.20;;;;;;;20.19;54.93;99405.81;10504145;28;20048;-60
2023/07/31 09:09:32;;;;;;;2.85;1.50;;;;;;;20.37;55.12;99418.13;10502596;28;20074;-61
2023/07/31 09:14:35;;;;;;;2.63;1.40;;;;;;;20.19;56.03;99405.03;10468508;28;20043;-61
2023/07/31 09:19:37;;;;;;;2.05;1.20;;;;;;;20.50;55.95;99400.69;10491367;28;20125;-61
2023/07/31 09:24:40;;;;;;;4.47;1.40;;;;;;;20.79;55.43;99408.97;10498749;28;20531;-61
2023/07/31 09:29:42;;;;;;;2.25;1.17;;;;;;;20.87;55.42;99400.16;10504067;28;20438;-61
2023/07/31 09:34:44;;;;;;;2.90;1.38;;;;;;;20.76;55.50;99384.59;10504620;28;20597;-60
2023/07/31 09:39:47;;;;;;;2.85;1.40;;;;;;;20.72;56.07;99376.09;10504807;28;20040;-61
2023/07/31 09:44:49;;;;;;;4.20;1.25;;;;;;;20.60;56.08;99382.75;10506374;28;20048;-61
2023/07/31 09:49:52;;;;;;;2.63;1.20;;;;;;;20.42;56.98;99371.47;10507232;28;20424;-60
2023/07/31 09:54:54;;;;;;;5.93;1.20;;;;;;;20.28;57.26;99364.16;10507546;28;20268;-61
2023/07/31 09:59:56;;;;;;;2.55;1.48;;;;;;;20.38;57.52;99362.19;10507880;28;20097;-60
2023/07/31 10:05:02;;;;;;;3.65;1.35;;;;;;;20.82;56.68;99357.31;10508636;28;20438;-60
2023/07/31 10:10:08;;;;;;;2.58;1.20;;;;;;;20.97;55.76;99352.94;10502335;28;20090;-60
2023/07/31 10:15:11;;;;;;;3.45;1.48;;;;;;;20.87;56.25;99345.16;10505381;28;20408;-60
2023/07/31 10:20:16;;;;;;;3.83;1.40;;;;;;;20.93;56.07;99346.31;10504173;28;20419;-60
2023/07/31 10:25:19;;;;;;;2.72;1.45;;;;;;;20.95;56.49;99345.13;10488616;28;20196;-61
2023/07/31 10:30:29;;;;;;;3.83;1.30;;;;;;;21.12;55.77;99345.91;10497084;28;20065;-60
2023/07/31 10:35:31;;;;;;;3.00;1.27;;;;;;;20.99;55.45;99335.81;10500177;28;20059;-60
2023/07/31 10:40:34;;;;;;;3.85;1.30;;;;;;;21.07;54.11;99319.84;10494438;28;20559;-60
2023/07/31 10:45:39;;;;;;;2.60;1.27;;;;;;;21.20;53.45;99332.56;10503994;28;20044;-61
2023/07/31 10:50:50;;;;;;;2.03;1.27;;;;;;;21.35;52.12;99325.56;10502079;28;20389;-60
2023/07/31 10:55:53;;;;;;;3.50;1.75;;;;;;;21.28;51.58;99323.72;10501633;28;20136;-60
2023/07/31 11:00:57;;;;;;;1.92;1.15;;;;;;;21.42;51.63;99312.38;10499576;28;20052;-61
2023/07/31 11:06:02;;;;;;;2.58;1.40;;;;;;;21.51;50.78;99304.19;10501440;28;20051;-60
2023/07/31 11:11:08;;;;;;;4.35;1.30;;;;;;;21.57;50.11;99298.16;10497603;28;20044;-60
2023/07/31 11:16:12;;;;;;;4.22;1.27;;;;;;;21.96;49.50;99290.03;10500232;28;20519;-60
2023/07/31 11:21:17;;;;;;;3.33;1.20;;;;;;;22.13;49.38;99288.88;10497992;28;20047;-61
2023/07/31 11:26:19;;;;;;;3.38;1.27;;;;;;;22.27;48.56;99285.41;10501593;28;20050;-60
2023/07/31 11:31:22;;;;;;;3.35;1.10;;;;;;;22.30;48.20;99279.75;10499823;28;20453;-61
2023/07/31 11:36:25;;;;;;;3.03;1.05;;;;;;;22.18;47.89;99281.19;10497212;28;20565;-61
2023/07/31 11:41:29;;;;;;;2.45;1.10;;;;;;;22.22;47.31;99281.66;10475702;28;20062;-61
2023/07/31 11:46:31;;;;;;;2.58;1.25;;;;;;;22.38;46.78;99276.16;10504516;28;20051;-60
2023/07/31 11:51:34;;;;;;;4.22;0.98;;;;;;;22.47;47.05;99272.41;10502648;28;20393;-61
2023/07/31 11:56:37;;;;;;;2.78;0.95;;;;;;;22.32;46.16;99267.06;10502373;28;20446;-60
2023/07/31 12:01:40;;;;;;;2.25;1.02;;;;;;;22.32;46.49;99255.56;10482375;28;20361;-61
2023/07/31 12:06:43;;;;;;;2.97;1.10;;;;;;;22.77;45.45;99244.75;10503210;28;20412;-61
2023/07/31 12:11:47;;;;;;;2.97;1.05;;;;;;;23.23;44.96;99230.13;10503363;28;20050;-61
2023/07/31 12:17:08;;;;;;;3.45;0.93;;;;;;;23.30;43.21;99232.84;10501634;28;20032;-61
2023/07/31 12:22:15;;;;;;;3.85;1.42;;;;;;;23.55;44.44;99225.34;10504333;28;20136;-61
2023/07/31 12:27:18;;;;;;;1.92;1.00;;;;;;;23.43;43.19;99230.38;10492146;28;20697;-61
2023/07/31 12:32:22;;;;;;;2.08;1.15;;;;;;;23.50;43.68;99225.91;10492842;28;20040;-61
2023/07/31 12:37:24;;;;;;;1.52;0.80;;;;;;;23.76;43.96;99217.31;10496368;28;20036;-61
2023/07/31 12:42:26;;;;;;;4.43;1.00;;;;;;;23.99;42.79;99209.88;10472391;28;20169;-60
2023/07/31 12:47:28;;;;;;;2.47;1.33;;;;;;;23.82;43.04;99211.22;10497560;28;20204;-60
2023/07/31 12:52:30;;;;;;;1.95;1.02;;;;;;;23.83;43.47;99207.50;10498391;28;20152;-60
2023/07/31 12:57:32;;;;;;;2.08;0.90;;;;;;;23.90;43.33;99197.72;10496968;28;20040;-60
2023/07/31 13:02:34;;;;;;;1.55;1.10;;;;;;;23.97;43.36;99203.91;10505548;28;20131;-60
2023/07/31 13:07:36;;;;;;;2.78;1.20;;;;;;;23.46;42.97;99196.13;10503580;28;20079;-60
2023/07/31 13:12:38;;;;;;;1.77;1.00;;;;;;;23.52;43.45;99194.50;10504439;28;20052;-60
2023/07/31 13:17:41;;;;;;;1.85;1.10;;;;;;;23.68;42.68;99201.41;10499191;28;20050;-60
2023/07/31 13:22:43;;;;;;;2.35;1.15;;;;;;;23.82;43.47;99197.84;10506690;28;20167;-60
2023/07/31 13:27:47;;;;;;;3.95;1.52;;;;;;;23.90;42.88;99203.84;10504379;28;20044;-60
2023/07/31 13:32:49;;;;;;;2.90;1.25;;;;;;;23.61;43.85;99198.72;10489093;28;20048;-60
2023/07/31 13:37:51;;;;;;;1.83;0.98;;;;;;;23.68;43.72;99196.91;10496838;28;20044;-60
2023/07/31 13:42:54;;;;;;;2.28;1.10;;;;;;;23.33;43.83;99203.16;10511239;28;20295;-60
2023/07/31 13:47:56;;;;;;;3.50;1.52;;;;;;;23.22;43.97;99211.63;10507527;28;20105;-60
2023/07/31 13:52:58;;;;;;;1.25;0.98;;;;;;;22.83;44.49;99200.53;10488472;28;20051;-61
2023/07/31 13:58:00;;;;;;;1.23;0.70;;;;;;;22.59;44.72;99188.31;10490264;28;20504;-61
2023/07/31 14:03:03;;;;;;;1.90;1.00;;;;;;;22.61;45.04;99179.13;10505810;28;20319;-62
2023/07/31 14:08:05;;;;;;;5.18;1.02;;;;;;;22.78;44.66;99182.41;10510903;28;20521;-61
2023/07/31 14:13:07;;;;;;;1.15;0.63;;;;;;;22.99;44.75;99185.13;10512067;28;20044;-61
2023/07/31 14:18:09;;;;;;;0.80;0.75;;;;;;;22.85;44.93;99193.16;10508546;28;20067;-61
2023/07/31 14:23:12;;;;;;;0.80;0.70;;;;;;;23.16;44.31;99156.38;10512594;28;20135;-61
2023/07/31 14:28:14;;;;;;;1.40;1.00;;;;;;;23.41;44.21;99153.16;10493120;28;20051;-61
2023/07/31 14:33:16;;;;;;;4.00;0.90;;;;;;;23.51;44.05;99155.50;10474912;28;20048;-61
2023/07/31 14:38:18;;;;;;;1.65;0.75;;;;;;;23.74;43.67;99160.59;10512204;28;20732;-61
2023/07/31 14:43:20;;;;;;;3.42;1.20;;;;;;;23.74;43.78;99169.44;10510378;28;20093;-61
2023/07/31 14:48:22;;;;;;;0.70;0.70;;;;;;;23.97;43.13;99179.88;10511692;28;20048;-61
2023/07/31 14:53:24;;;;;;;0.70;0.57;;;;;;;23.92;43.33;99160.94;10510615;28;20135;-61
2023/07/31 14:58:26;;;;;;;1.70;0.80;;;;;;;23.83;42.97;99157.59;10509758;28;20411;-61
2023/07/31 15:03:28;;;;;;;1.48;0.77;;;;;;;23.31;44.02;99165.97;10509154;28;20036;-61
2023/07/31 15:08:30;;;;;;;1.20;0.75;;;;;;;23.05;44.50;99179.03;10504117;28;20420;-60
2023/07/31 15:13:32;;;;;;;1.15;0.60;;;;;;;22.77;45.01;99179.94;10475038;28;20048;-61
2023/07/31 15:18:34;;;;;;;2.33;1.02;;;;;;;22.77;45.14;99180.78;10522582;27;20044;-61
2023/07/31 15:23:38;;;;;;;0.85;0.75;;;;;;;22.63;45.06;99187.78;10504965;28;20499;-60
2023/07/31 15:28:40;;;;;;;1.38;0.68;;;;;;;22.28;45.79;99201.00;10504916;28;20047;-60
2023/07/31 15:33:42;;;;;;;1.23;0.70;;;;;;;21.91;46.63;99204.53;10487877;28;20064;-60
2023/07/31 15:38:46;;;;;;;1.73;0.85;;;;;;;21.66;46.73;99203.91;10489201;28;20547;-60
2023/07/31 15:43:48;;;;;;;2.08;0.70;;;;;;;21.38;46.95;99196.66;10506738;28;20040;-60
2023/07/31 15:48:50;;;;;;;2.28;1.25;;;;;;;21.09;48.04;99184.88;10506194;28;20207;-60
2023/07/31 15:53:53;;;;;;;1.52;1.00;;;;;;;21.07;47.81;99173.59;10522337;28;20936;-60
2023/07/31 15:58:57;;;;;;;1.60;0.95;;;;;;;21.26;47.48;99169.63;10488613;28;20125;-61
2023/07/31 16:03:59;;;;;;;2.75;1.15;;;;;;;21.38;47.21;99170.06;10506454;28;20311;-61
2023/07/31 16:09:01;;;;;;;2.50;1.00;;;;;;;21.51;47.05;99152.50;10484552;28;20181;-60
2023/07/31 16:14:03;;;;;;;2.47;1.08;;;;;;;21.48;47.05;99138.72;10507451;28;20045;-60
2023/07/31 16:19:05;;;;;;;2.78;1.30;;;;;;;21.46;46.95;99132.75;10505675;28;20510;-61
2023/07/31 16:24:08;;;;;;;1.70;0.85;;;;;;;21.36;47.37;99132.19;10500598;28;20212;-61
2023/07/31 16:29:11;;;;;;;1.98;1.00;;;;;;;21.17;48.05;99117.50;10514116;28;20048;-60
2023/07/31 16:34:13;;;;;;;2.38;1.25;;;;;;;21.15;48.69;99124.03;10516470;28;20060;-60
2023/07/31 16:39:15;;;;;;;2.58;1.10;;;;;;;21.07;48.81;99120.41;10516431;28;20495;-60
2023/07/31 16:44:19;;;;;;;2.17;1.10;;;;;;;20.65;51.86;99129.84;10512526;28;20579;-60
2023/07/31 16:49:21;;;;;;;1.80;0.90;;;;;;;20.01;54.18;99115.81;10506988;28;20076;-60
2023/07/31 16:54:23;;;;;;;2.17;1.00;;;;;;;19.67;54.54;99128.50;10487636;28;20136;-60
2023/07/31 16:59:26;;;;;;;1.38;1.00;;;;;;;19.51;55.07;99096.69;10509461;28;20051;-60
2023/07/31 17:04:30;;;;;;;1.92;0.95;;;;;;;19.44;55.48;99104.47;10508545;28;20101;-60
2023/07/31 17:09:33;;;;;;;1.65;0.90;;;;;;;19.50;56.00;99089.75;10510398;28;20048;-60
2023/07/31 17:14:35;;;;;;;1.90;1.05;;;;;;;19.48;56.43;99086.44;10508732;28;20170;-60
2023/07/31 17:19:37;;;;;;;3.03;1.17;;;;;;;19.42;56.46;99081.78;10508428;28;20068;-60
2023/07/31 17:24:39;;;;;;;2.20;1.10;;;;;;;19.32;57.07;99076.66;10512192;28;20047;-60
2023/07/31 17:29:41;;;;;;;2.83;1.20;;;;;;;19.22;57.15;99080.47;10509147;28;20125;-60
2023/07/31 17:34:46;;;;;;;3.25;1.30;;;;;;;19.16;57.41;99067.88;10505383;28;20138;-60
2023/07/31 17:39:48;;;;;;;3.03;1.25;;;;;;;19.05;58.37;99047.03;10506431;28;20533;-60
2023/07/31 17:44:50;;;;;;;3.75;1.50;;;;;;;18.76;58.88;99046.66;10506807;28;20038;-60
2023/07/31 17:49:52;;;;;;;3.92;1.67;;;;;;;18.69;59.47;99037.75;10509122;28;20711;-60
2023/07/31 17:54:54;;;;;;;2.83;1.33;;;;;;;18.64;59.97;99035.56;10511414;28;20435;-60
2023/07/31 17:59:56;;;;;;;2.92;1.20;;;;;;;18.62;60.24;99040.22;10489645;28;20181;-60
2023/07/31 18:04:58;;;;;;;3.20;1.50;;;;;;;18.63;60.60;99044.50;10508949;28;20047;-60
2023/07/31 18:10:01;;;;;;;2.63;1.60;;;;;;;18.63;60.99;99032.09;10509325;28;20044;-60
2023/07/31 18:15:05;;;;;;;4.07;1.60;;;;;;;18.49;61.03;99014.19;10512613;28;20557;-60
2023/07/31 18:20:09;;;;;;;2.50;1.50;;;;;;;18.42;60.91;99005.25;10511632;28;20576;-60
2023/07/31 18:25:12;;;;;;;4.32;1.40;;;;;;;18.41;61.46;98994.81;10492717;28;20055;-60
2023/07/31 18:30:14;;;;;;;1.40;0.95;;;;;;;18.46;61.11;98992.53;10509846;28;20051;-60
2023/07/31 18:35:19;;;;;;;3.33;1.38;;;;;;;18.55;61.34;98970.34;10504620;28;20113;-60
2023/07/31 18:40:21;;;;;;;3.35;1.63;;;;;;;18.56;61.49;98972.00;10510297;28;20055;-60
2023/07/31 18:45:23;;;;;;;5.93;1.30;;;;;;;18.49;61.50;98977.13;10505618;28;20766;-60
2023/07/31 18:50:26;;;;;;;3.80;1.60;;;;;;;18.51;61.66;98985.75;10508137;28;20043;-60
2023/07/31 18:55:28;;;;;;;2.33;1.42;;;;;;;18.28;62.16;98992.66;10508598;28;20062;-60
2023/07/31 19:00:31;;;;;;;2.05;1.20;;;;;;;18.22;62.39;98995.16;10508770;28;20044;-60
2023/07/31 19:05:33;;;;;;;4.00;1.35;;;;;;;18.20;62.54;98991.84;10506039;28;20036;-58
2023/07/31 19:10:36;;;;;;;3.50;1.70;;;;;;;18.13;62.90;98982.84;10501935;28;20050;-58
2023/07/31 19:15:38;;;;;;;2.88;1.60;;;;;;;17.98;62.85;98971.22;10505242;28;20059;-58
2023/07/31 19:20:40;;;;;;;5.68;2.20;;;;;;;17.98;62.82;98971.22;10504908;28;20117;-58
2023/07/31 19:25:42;;;;;;;4.18;1.88;;;;;;;17.98;62.75;98976.50;10501817;28;20467;-58
2023/07/31 19:30:44;;;;;;;2.38;1.60;;;;;;;17.97;62.91;98964.28;10522527;27;20126;-58
2023/07/31 19:35:57;;;;;;;2.88;1.45;;;;;;;17.92;63.72;98951.53;10506692;28;20052;-58
2023/07/31 19:41:03;;;;;;;5.80;1.85;;;;;;;17.83;63.62;98942.75;10508878;28;20135;-58
2023/07/31 19:46:05;;;;;;;3.80;1.73;;;;;;;17.83;62.99;98937.44;10508450;28;20851;-58
2023/07/31 19:51:07;;;;;;;2.75;1.40;;;;;;;17.78;63.62;98937.13;10491121;28;20055;-58
2023/07/31 19:56:09;;;;;;;5.70;1.95;;;;;;;17.82;63.50;98941.09;10507205;28;20059;-58
2023/07/31 20:01:11;;;;;;;3.38;1.40;;;;;;;17.84;63.50;98944.41;10489871;28;20407;-58
2023/07/31 20:06:13;;;;;;;6.95;2.10;;;;;;;17.69;64.01;98934.59;10508480;28;20047;-58
2023/07/31 20:11:15;;;;;;;3.88;1.70;;;;;;;17.58;64.53;98919.03;10485697;28;20120;-58
2023/07/31 20:16:18;;;;;;;4.50;1.77;;;;;;;17.54;64.68;98905.31;10504729;28;20472;-58
2023/07/31 20:21:20;;;;;;;7.35;1.48;;;;;;;17.53;64.90;98893.06;10472778;28;20036;-58
2023/07/31 20:26:22;;;;;;;5.15;1.83;;;;;;;17.44;65.52;98898.50;10505668;28;20043;-58
2023/07/31 20:31:24;;;;;;;4.68;1.70;;;;;;;17.42;65.02;98893.38;10505076;28;20132;-58
2023/07/31 20:36:26;;;;;;;4.35;1.58;;;;;;;17.39;65.54;98887.56;10507683;28;20056;-58
2023/07/31 20:41:28;;;;;;;3.60;1.60;;;;;;;17.40;65.53;98881.31;10506446;28;20123;-58
2023/07/31 20:46:30;;;;;;;4.15;1.70;;;;;;;17.33;65.70;98885.53;10506650;28;20055;-58
2023/07/31 20:51:34;;;;;;;3.30;1.38;;;;;;;17.40;65.71;98871.56;10503449;28;20059;-58
2023/07/31 20:56:36;;;;;;;2.22;1.48;;;;;;;17.42;65.80;98860.84;10507569;28;20079;-57
2023/07/31 21:01:39;;;;;;;7.80;1.85;;;;;;;17.42;66.25;98852.91;10505572;28;20177;-58
2023/07/31 21:06:41;;;;;;;3.97;1.70;;;;;;;17.31;66.15;98859.28;10507135;28;20123;-58
2023/07/31 21:11:43;;;;;;;4.30;1.48;;;;;;;17.36;66.18;98832.41;10507168;28;20370;-58
2023/07/31 21:16:45;;;;;;;3.88;1.58;;;;;;;17.38;66.34;98819.84;10511462;28;20519;-58
2023/07/31 21:21:47;;;;;;;3.05;1.60;;;;;;;17.35;66.04;98805.13;10511581;28;20202;-58
2023/07/31 21:26:49;;;;;;;3.75;1.80;;;;;;;17.30;66.55;98780.97;10514674;28;20071;-58
2023/07/31 21:31:51;;;;;;;2.95;1.38;;;;;;;17.23;66.63;98772.03;10494181;28;20403;-58
2023/07/31 21:36:56;;;;;;;2.05;1.20;;;;;;;17.21;67.02;98754.69;10511449;28;20055;-58
2023/07/31 21:41:58;;;;;;;3.65;1.30;;;;;;;17.20;66.83;98748.56;10511425;28;20042;-58
2023/07/31 21:47:00;;;;;;;2.67;1.48;;;;;;;17.18;67.34;98732.06;10511288;28;20131;-58
2023/07/31 21:52:03;;;;;;;3.08;1.27;;;;;;;17.19;66.96;98735.53;10511779;28;20067;-58
2023/07/31 21:57:05;;;;;;;3.35;1.20;;;;;;;17.13;67.33;98725.63;10512371;28;20143;-58
2023/07/31 22:02:07;;;;;;;1.35;0.80;;;;;;;17.00;68.12;98712.88;10510081;28;20679;-58
2023/07/31 22:07:10;;;;;;;2.22;1.20;;;;;;;16.96;68.15;98704.44;10512099;28;20040;-58
2023/07/31 22:12:12;;;;;;;2.30;1.02;;;;;;;16.86;70.00;98676.53;10509852;28;20407;-58
2023/07/31 22:17:14;;;;;;;1.48;1.00;;;;;;;16.86;69.20;98697.66;10512586;28;20060;-58
2023/07/31 22:22:16;;;;;;;3.30;1.30;;;;;;;16.82;70.36;98698.97;10509544;28;20408;-58
2023/07/31 22:27:18;;;;;;;1.98;1.15;;;;;;;16.87;68.71;98691.41;10512096;28;20491;-58
2023/07/31 22:32:20;;;;;;;2.22;1.02;;;;;;;16.92;69.43;98697.84;10510381;28;20082;-58
2023/07/31 22:37:22;;;;;;;1.85;1.10;;;;;;;16.94;69.28;98676.53;10511225;28;20594;-58
2023/07/31 22:42:24;;;;;;;1.35;0.93;;;;;;;17.05;68.87;98678.88;10491685;28;20119;-58
2023/07/31 22:47:26;;;;;;;3.10;1.10;;;;;;;16.98;69.30;98672.59;10510970;28;20134;-58
2023/07/31 22:52:28;;;;;;;2.58;1.20;;;;;;;16.92;69.45;98665.31;10508122;28;20139;-58
2023/07/31 22:57:30;;;;;;;1.95;1.17;;;;;;;16.95;69.39;98667.66;10509225;28;20089;-57
2023/07/31 23:02:32;;;;;;;1.65;1.00;;;;;;;16.99;69.57;98683.00;10510060;28;20168;-58
2023/07/31 23:07:34;;;;;;;1.73;1.00;;;;;;;16.99;69.44;98661.06;10510046;28;20515;-58
2023/07/31 23:12:36;;;;;;;2.63;1.52;;;;;;;17.07;69.68;98637.28;10507050;28;20130;-58
2023/07/31 23:17:38;;;;;;;2.72;1.10;;;;;;;17.13;69.42;98618.13;10488720;28;20055;-57
2023/07/31 23:22:40;;;;;;;3.13;1.10;;;;;;;17.28;68.92;98613.81;10491455;28;20047;-58
2023/07/31 23:27:44;;;;;;;2.95;1.10;;;;;;;17.38;68.84;98597.84;10509036;28;20529;-58